Oracle, AZ (85623)

01:22 AM MST on Oktober 02, 2014 (GMT -0700)
KAZORACL3 | Change Station
CLOSE
Current Station
Personligvejrstation
Location: Oracle, AZ
Højde: 4635 ft
Vejrstationer i nærheden

Elev 4635 ft 32.60 °N, 110.75 °W | Updated 10 seconds ago

Klart
Klart
62.0 ° F
Føles som 62.0 ° F
N
0.0
Vind Skiftende Vind Vest
Gusts 0.0 mph

I dag
Høj -- | Lav -- ° F
--% Risiko for nedbør
I går
Høj -- | Lav -- ° F
Precip. -- tommer
6:17 AM 6:06 PM
Første kvartal, 56% visible
Tryk 29.84 tommer
Sigtbarhed 10.0 mil
Skyer Klart
Dugpunkt 35 ° F
Luftfugtighed 37%
Regnmængde 0.00 tommer
Snedybde Ikke tilgængelig.
UV 0 fra 12
Pollen 6.00 fra 12
Luftkvalitet Ikke tilgængelig.
Flu Activity Ikke tilgængelig.
METAR KDMA 020758Z AUTO 14007KT 10SM CLR 18/05 A2995 RMK AO2 SLP104 T01800048 $

More Conditions Fewer Conditions

Tryk 29.84 tommer
Sigtbarhed 10.0 mil
Skyer Klart
Dugpunkt 35 ° F
Luftfugtighed 37%
Regnmængde 0.00 tommer
Snedybde Ikke tilgængelig.
UV 0 fra 12
Pollen 6.00 fra 12
Luftkvalitet Ikke tilgængelig.
Flu Activity Ikke tilgængelig.
METAR KDMA 020758Z AUTO 14007KT 10SM CLR 18/05 A2995 RMK AO2 SLP104 T01800048 $

More Conditions Fewer Conditions

10-Day Weather Forecast

Almanac

Astronomi

Oct. 02, 2014 Opgang Nedgang
Faktisktidspunkt 6:17 AM MST 6:06 PM MST
Civilttusmørke 5:53 AM MST 6:30 PM MST
Nautisktusmørke 5:24 AM MST 6:59 PM MST
Astronomisktusmørke 4:56 AM MST 7:28 PM MST
Måne 1:58 PM MST Ingen månenedgang
Synligtlys’ længde 12h 37m
Dagens længde
11h 48m
Tomorrow will be 1m 59s shorter.
Første kvartal, 56% of the Moon is Illuminated
I dag
Første kvartal
Okt. 8
Fuldmåne
Okt. 15
Sidste kvartal
Okt. 23
Ny
Okt. 30
Første kvartal

Ekstremer i dag

State Highs State Lows

Community

WunderPhotos

Upload Photos

1,758,196 Billeder uploaded!

WunderBlogs® & News

By Dr. Jeff Masters
Director of Meteorology, Weather Underground
By Kari Strenfel
Meteorologist, Weather Underground
By Christopher C. Burt
Weather Historian, Weather Underground
October 2, 2014
October 2, 2014
October 2, 2014

Nearby

Snedybde

Station Depth Højde
White Horse Lake 0 in 7180 ft
Wildcat 0 in 7850 ft
Workman Creek 2 in 6900 ft
Snowslide Canyon 1 in 9730 ft
Promontory 0 in 7930 ft

Jordskælvsaktivitet

By Distance Mag. Time & Date
No recent earthquake activity has been reported nearby.
Minimum magnitude displayed is 2.5.

Kystnære vandtemperaturer

Sted Temperatur
Ingen stationer rapporterer

Vejrstationer i nærheden